createdAt,value
2018-06-17T00:00:50.441Z,101096.67
2018-06-17T00:03:17.340Z,101104.84
2018-06-17T00:05:44.249Z,101096.96
2018-06-17T00:08:11.217Z,101097.26
2018-06-17T00:10:38.129Z,101100.22
2018-06-17T00:13:05.118Z,101096.30
2018-06-17T00:15:32.022Z,101098.42
2018-06-17T00:17:58.909Z,101105.66
2018-06-17T00:20:25.825Z,101116.68
2018-06-17T00:22:52.868Z,101116.55
2018-06-17T00:25:19.761Z,101107.53
2018-06-17T00:27:46.661Z,101109.80
2018-06-17T00:30:13.586Z,101107.80
2018-06-17T00:32:40.478Z,101115.61
2018-06-17T00:35:07.386Z,101109.81
2018-06-17T00:37:34.536Z,101108.36
2018-06-17T00:40:01.434Z,101111.15
2018-06-17T00:42:28.353Z,101098.27
2018-06-17T00:44:55.261Z,101082.86
2018-06-17T00:47:22.192Z,101086.09
2018-06-17T00:49:49.058Z,101087.54
2018-06-17T00:52:15.985Z,101088.55
2018-06-17T00:54:42.878Z,101082.61
2018-06-17T00:57:21.449Z,101076.27
2018-06-17T00:59:48.325Z,101072.34
2018-06-17T01:02:15.225Z,101062.41
2018-06-17T01:04:42.117Z,101067.08
2018-06-17T01:07:09.013Z,101075.80
2018-06-17T01:09:35.895Z,101073.53
2018-06-17T01:12:02.833Z,101073.66
2018-06-17T01:14:29.711Z,101079.61
2018-06-17T01:16:56.622Z,101074.54
2018-06-17T01:19:23.524Z,101080.87
2018-06-17T01:21:50.433Z,101080.88
2018-06-17T01:24:17.314Z,101070.99
2018-06-17T01:26:44.229Z,101062.86
2018-06-17T01:29:11.117Z,101070.05
2018-06-17T01:31:38.017Z,101067.92
2018-06-17T01:34:05.033Z,101067.13
2018-06-17T01:36:31.924Z,101062.45
2018-06-17T01:38:58.825Z,101068.53
2018-06-17T01:41:25.733Z,101069.11
2018-06-17T01:43:52.622Z,101078.84
2018-06-17T01:46:19.533Z,101082.98
2018-06-17T01:48:46.492Z,101081.25
2018-06-17T01:51:13.401Z,101072.17
2018-06-17T01:53:40.298Z,101069.39
2018-06-17T01:56:07.222Z,101081.12
2018-06-17T01:58:34.124Z,101084.59
2018-06-17T02:01:01.033Z,101088.86
2018-06-17T02:03:33.686Z,101088.20
2018-06-17T02:06:06.369Z,101095.53
2018-06-17T02:08:39.070Z,101094.69
2018-06-17T02:11:11.722Z,101086.73
2018-06-17T02:13:38.624Z,101095.70
2018-06-17T02:16:05.539Z,101088.98
2018-06-17T02:18:32.437Z,101083.54
2018-06-17T02:20:59.328Z,101078.27
2018-06-17T02:23:26.237Z,101088.00
2018-06-17T02:25:53.151Z,101089.53
2018-06-17T02:28:20.053Z,101085.92
2018-06-17T02:30:46.948Z,101095.13
2018-06-17T02:33:13.858Z,101092.93
2018-06-17T02:35:40.746Z,101085.06
2018-06-17T02:38:07.645Z,101072.67
2018-06-17T02:40:34.538Z,101077.73
2018-06-17T02:43:01.444Z,101078.19
2018-06-17T02:45:34.073Z,101073.94
2018-06-17T02:48:06.733Z,101069.12
2018-06-17T02:50:39.377Z,101071.34
2018-06-17T02:53:12.013Z,101071.13
2018-06-17T02:55:38.899Z,101067.24
2018-06-17T02:58:05.805Z,101069.50
2018-06-17T03:00:32.741Z,101068.16
2018-06-17T03:02:59.665Z,101070.47
2018-06-17T03:05:26.559Z,101071.47
2018-06-17T03:07:53.530Z,101078.45
2018-06-17T03:10:20.438Z,101076.92
2018-06-17T03:12:47.339Z,101072.08
2018-06-17T03:15:14.225Z,101070.74
2018-06-17T03:17:41.160Z,101058.86
2018-06-17T03:20:08.045Z,101066.88
2018-06-17T03:22:34.950Z,101058.59
2018-06-17T03:25:07.733Z,101056.96
2018-06-17T03:27:40.462Z,101059.33
2018-06-17T03:30:13.143Z,101066.26
2018-06-17T03:32:45.753Z,101069.53
2018-06-17T03:35:18.508Z,101065.07
2018-06-17T03:37:45.418Z,101068.06
2018-06-17T03:40:12.466Z,101064.87
2018-06-17T03:42:39.403Z,101067.80
2018-06-17T03:45:06.324Z,101068.93
2018-06-17T03:47:33.253Z,101067.24
2018-06-17T03:50:00.173Z,101073.59
2018-06-17T03:52:27.065Z,101069.27
2018-06-17T03:54:53.985Z,101061.20
2018-06-17T03:57:20.896Z,101063.73
2018-06-17T03:59:47.800Z,101067.03
2018-06-17T04:02:14.709Z,101068.73
2018-06-17T04:04:47.409Z,101068.59
2018-06-17T04:07:14.301Z,101067.84
2018-06-17T04:09:41.197Z,101069.70
2018-06-17T04:12:08.085Z,101072.19
2018-06-17T04:14:35.009Z,101066.92
2018-06-17T04:17:08.662Z,101070.47
2018-06-17T04:19:35.590Z,101074.20
2018-06-17T04:22:02.493Z,101073.25
2018-06-17T04:24:29.405Z,101082.56
2018-06-17T04:26:56.347Z,101076.46
2018-06-17T04:29:23.265Z,101087.21
2018-06-17T04:31:50.164Z,101082.96
2018-06-17T04:34:17.074Z,101093.04
2018-06-17T04:36:43.981Z,101091.31
2018-06-17T04:39:10.902Z,101092.83
2018-06-17T04:41:37.795Z,101095.71
2018-06-17T04:44:04.772Z,101095.77
2018-06-17T04:46:31.677Z,101093.38
2018-06-17T04:48:58.605Z,101083.72
2018-06-17T04:51:25.525Z,101087.77
2018-06-17T04:53:52.443Z,101094.27
2018-06-17T04:56:19.353Z,101092.13
2018-06-17T04:58:46.268Z,101087.59
2018-06-17T05:01:13.248Z,101089.53
2018-06-17T05:03:40.161Z,101083.17
2018-06-17T05:06:07.099Z,101085.45
2018-06-17T05:08:34.005Z,101082.11
2018-06-17T05:11:00.929Z,101084.92
2018-06-17T05:13:27.843Z,101087.66
2018-06-17T05:15:54.766Z,101081.55
2018-06-17T05:18:21.674Z,101082.42
2018-06-17T05:20:48.589Z,101084.59
2018-06-17T05:23:15.531Z,101083.97
2018-06-17T05:25:42.441Z,101090.21
2018-06-17T05:28:09.341Z,101086.62
2018-06-17T05:30:36.256Z,101089.67
2018-06-17T05:33:03.190Z,101090.80
2018-06-17T05:35:30.095Z,101088.51
2018-06-17T05:37:57.004Z,101093.08
2018-06-17T05:40:23.921Z,101087.10
2018-06-17T05:42:50.820Z,101089.08
2018-06-17T05:45:17.709Z,101084.50
2018-06-17T05:47:44.588Z,101082.80
2018-06-17T05:50:11.485Z,101086.72
2018-06-17T05:52:38.385Z,101089.84
2018-06-17T05:55:05.288Z,101088.56
2018-06-17T05:57:32.175Z,101082.78
2018-06-17T05:59:59.069Z,101089.83
2018-06-17T06:02:25.969Z,101089.75
2018-06-17T06:04:52.860Z,101087.84
2018-06-17T06:07:19.749Z,101089.12
2018-06-17T06:09:46.653Z,101094.78
2018-06-17T06:12:13.537Z,101096.48
2018-06-17T06:14:40.434Z,101095.31
2018-06-17T06:17:07.341Z,101096.95
2018-06-17T06:19:34.278Z,101105.91
2018-06-17T06:22:01.174Z,101104.58
2018-06-17T06:24:28.105Z,101109.05
2018-06-17T06:26:55.025Z,101104.95
2018-06-17T06:29:21.933Z,101108.80
2018-06-17T06:31:48.836Z,101111.37
2018-06-17T06:34:15.733Z,101110.17
2018-06-17T06:36:42.660Z,101113.95
2018-06-17T06:39:10.273Z,101106.25
2018-06-17T06:41:37.174Z,101101.59
2018-06-17T06:44:04.173Z,101103.94
2018-06-17T06:46:31.080Z,101103.27
2018-06-17T06:48:57.972Z,101108.13
2018-06-17T06:51:24.896Z,101102.14
2018-06-17T06:53:51.810Z,101107.81
2018-06-17T06:56:18.722Z,101115.91
2018-06-17T06:58:45.624Z,101115.42
2018-06-17T07:01:13.140Z,101107.84
2018-06-17T07:04:49.481Z,101112.14
2018-06-17T07:07:27.913Z,101116.92
2018-06-17T07:10:05.893Z,101110.75
2018-06-17T07:12:32.793Z,101108.95
2018-06-17T07:14:59.697Z,101110.25
2018-06-17T07:17:38.240Z,101112.14
2018-06-17T07:20:05.148Z,101116.37
2018-06-17T07:22:32.112Z,101112.92
2018-06-17T07:24:59.077Z,101111.62
2018-06-17T07:27:37.509Z,101111.14
2018-06-17T07:30:04.422Z,101116.16
2018-06-17T07:32:31.341Z,101122.75
2018-06-17T07:34:58.249Z,101119.94
2018-06-17T07:37:25.190Z,101117.22
2018-06-17T07:40:12.022Z,101124.03
2018-06-17T07:42:38.934Z,101126.30
2018-06-17T07:45:05.840Z,101120.11
2018-06-17T07:47:33.261Z,101123.05
2018-06-17T07:50:12.792Z,101122.19
2018-06-17T07:52:51.389Z,101118.59
2018-06-17T07:55:18.288Z,101124.50
2018-06-17T07:57:45.194Z,101123.98
2018-06-17T08:00:12.102Z,101122.59
2018-06-17T08:02:39.014Z,101124.59
2018-06-17T08:05:05.909Z,101126.08
2018-06-17T08:07:32.837Z,101127.59
2018-06-17T08:09:59.744Z,101125.91
2018-06-17T08:12:26.662Z,101123.86
2018-06-17T08:14:53.550Z,101122.02
2018-06-17T08:17:20.458Z,101123.69
2018-06-17T08:19:47.369Z,101124.05
2018-06-17T08:22:14.277Z,101114.95
2018-06-17T08:24:41.209Z,101115.58
2018-06-17T08:27:08.132Z,101128.70
2018-06-17T08:29:37.517Z,101126.62
2018-06-17T08:32:06.677Z,101122.99
2018-06-17T08:34:33.585Z,101123.73
2018-06-17T08:37:00.480Z,101114.87
2018-06-17T08:39:27.385Z,101122.03
2018-06-17T08:41:54.316Z,101120.03
2018-06-17T08:44:21.639Z,101126.96
2018-06-17T08:46:49.053Z,101123.45
2018-06-17T08:49:16.241Z,101130.62
2018-06-17T08:51:43.145Z,101135.12
2018-06-17T08:54:10.138Z,101127.97
2018-06-17T08:56:37.173Z,101134.87
2018-06-17T08:59:04.089Z,101141.83
2018-06-17T09:01:31.265Z,101133.07
2018-06-17T09:03:58.220Z,101134.25
2018-06-17T09:06:25.133Z,101135.70
2018-06-17T09:08:53.445Z,101139.70
2018-06-17T09:11:22.672Z,101135.27
2018-06-17T09:13:52.359Z,101133.39
2018-06-17T09:16:21.412Z,101125.31
2018-06-17T09:18:49.267Z,101130.69
2018-06-17T09:21:17.587Z,101136.58
2018-06-17T09:23:46.472Z,101138.13
2018-06-17T09:26:16.579Z,101133.92
2018-06-17T09:28:43.529Z,101137.63
2018-06-17T09:31:12.002Z,101128.33
2018-06-17T09:33:41.070Z,101128.44
2018-06-17T09:36:07.976Z,101128.00
2018-06-17T09:38:34.878Z,101133.52
2018-06-17T09:41:01.808Z,101131.64
2018-06-17T09:43:28.713Z,101138.80
2018-06-17T09:45:55.685Z,101127.72
2018-06-17T09:48:22.568Z,101131.34
2018-06-17T09:50:49.481Z,101137.83
2018-06-17T09:53:16.360Z,101146.22
2018-06-17T09:55:43.829Z,101143.83
2018-06-17T09:58:10.773Z,101140.08
2018-06-17T10:00:37.673Z,101141.89
2018-06-17T10:03:04.633Z,101144.25
2018-06-17T10:05:31.570Z,101140.18
2018-06-17T10:07:58.481Z,101148.69
2018-06-17T10:10:52.806Z,101145.50
2018-06-17T10:13:20.460Z,101149.39
2018-06-17T10:15:48.027Z,101153.20
2018-06-17T10:18:17.919Z,101148.45
2018-06-17T10:20:44.856Z,101145.11
2018-06-17T10:23:11.931Z,101143.08
2018-06-17T10:25:38.885Z,101147.03
2018-06-17T10:28:06.327Z,101151.91
2018-06-17T10:30:34.015Z,101156.73
2018-06-17T10:33:00.965Z,101158.65
2018-06-17T10:35:27.849Z,101168.44
2018-06-17T10:37:54.733Z,101168.23
2018-06-17T10:40:21.624Z,101167.23
2018-06-17T10:42:48.994Z,101166.41
2018-06-17T10:45:16.289Z,101167.38
2018-06-17T10:47:43.794Z,101163.91
2018-06-17T10:50:10.713Z,101167.39
2018-06-17T10:52:38.474Z,101166.23
2018-06-17T10:55:05.564Z,101170.56
2018-06-17T10:57:32.689Z,101164.88
2018-06-17T10:59:59.592Z,101159.53
2018-06-17T11:02:26.513Z,101163.50
2018-06-17T11:04:53.431Z,101172.84
2018-06-17T11:07:20.529Z,101173.47
2018-06-17T11:09:47.483Z,101171.38
2018-06-17T11:12:14.470Z,101178.03
2018-06-17T11:14:41.361Z,101163.28
2018-06-17T11:17:08.298Z,101168.48
2018-06-17T11:19:35.230Z,101162.27
2018-06-17T11:22:02.125Z,101166.77
2018-06-17T11:24:29.021Z,101162.99
2018-06-17T11:26:55.941Z,101165.91
2018-06-17T11:29:22.837Z,101154.67
2018-06-17T11:31:49.741Z,101156.46
2018-06-17T11:34:16.748Z,101159.80
2018-06-17T11:36:43.657Z,101164.02
2018-06-17T11:39:10.686Z,101168.86
2018-06-17T11:41:37.514Z,101157.59
2018-06-17T11:44:04.786Z,101164.15
2018-06-17T11:46:31.696Z,101160.66
2018-06-17T11:48:58.622Z,101163.20
2018-06-17T11:51:25.704Z,101162.91
2018-06-17T11:53:52.668Z,101156.03
2018-06-17T11:56:19.577Z,101153.52
2018-06-17T11:58:46.481Z,101160.55
2018-06-17T12:01:13.394Z,101158.89
2018-06-17T12:03:40.303Z,101166.36
2018-06-17T12:06:07.308Z,101152.97
2018-06-17T12:08:34.269Z,101170.64
2018-06-17T12:11:01.189Z,101172.14
2018-06-17T12:13:28.109Z,101168.48
2018-06-17T12:15:55.013Z,101174.33
2018-06-17T12:18:21.955Z,101170.45
2018-06-17T12:20:48.873Z,101169.41
2018-06-17T12:23:15.768Z,101172.75
2018-06-17T12:25:42.696Z,101164.01
2018-06-17T12:28:09.589Z,101171.41
2018-06-17T12:30:36.505Z,101168.14
2018-06-17T12:33:03.431Z,101167.12
2018-06-17T12:35:30.341Z,101183.18
2018-06-17T12:37:57.249Z,101192.89
2018-06-17T12:40:24.144Z,101202.34
2018-06-17T12:42:51.137Z,101234.97
2018-06-17T12:45:18.046Z,101252.71
2018-06-17T12:47:44.957Z,101265.88
2018-06-17T12:50:11.942Z,101263.09
2018-06-17T12:52:38.857Z,101264.13
2018-06-17T12:55:05.744Z,101259.66
2018-06-17T12:57:32.657Z,101269.78
2018-06-17T13:00:01.718Z,101276.05
2018-06-17T13:02:31.812Z,101271.02
2018-06-17T13:04:58.738Z,101276.20
2018-06-17T13:07:25.896Z,101268.52
2018-06-17T13:09:52.896Z,101271.74
2018-06-17T13:12:19.801Z,101278.88
2018-06-17T13:14:46.817Z,101279.03
2018-06-17T13:17:14.064Z,101282.47
2018-06-17T13:19:41.109Z,101283.00
2018-06-17T13:22:08.009Z,101279.49
2018-06-17T13:24:35.174Z,101285.08
2018-06-17T13:27:02.094Z,101290.20
2018-06-17T13:29:28.985Z,101291.69
2018-06-17T13:31:55.897Z,101289.89
2018-06-17T13:34:22.851Z,101283.56
2018-06-17T13:36:49.769Z,101278.09
2018-06-17T13:39:16.677Z,101286.66
2018-06-17T13:41:43.572Z,101284.05
2018-06-17T13:44:10.464Z,101282.25
2018-06-17T13:46:37.390Z,101281.44
2018-06-17T13:49:04.381Z,101295.49
2018-06-17T13:51:31.281Z,101294.73
2018-06-17T13:53:58.568Z,101293.96
2018-06-17T13:56:25.479Z,101301.66
2018-06-17T13:58:52.369Z,101308.91
2018-06-17T14:01:19.267Z,101307.90
2018-06-17T14:03:46.165Z,101301.27
2018-06-17T14:06:13.060Z,101301.03
2018-06-17T14:08:39.961Z,101310.73
2018-06-17T14:11:06.904Z,101316.04
2018-06-17T14:13:33.914Z,101320.16
2018-06-17T14:16:00.712Z,101330.28
2018-06-17T14:18:27.640Z,101333.23
2018-06-17T14:20:54.524Z,101326.05
2018-06-17T14:23:21.429Z,101335.01
2018-06-17T14:25:48.321Z,101336.50
2018-06-17T14:28:15.221Z,101341.80
2018-06-17T14:30:42.116Z,101341.74
2018-06-17T14:33:09.008Z,101340.59
2018-06-17T14:35:35.900Z,101336.41
2018-06-17T14:38:02.840Z,101326.14
2018-06-17T14:40:34.349Z,101333.58
2018-06-17T14:43:07.080Z,101340.80
2018-06-17T14:45:39.790Z,101339.55
2018-06-17T14:48:12.536Z,101344.31
2018-06-17T14:50:45.085Z,101339.52
2018-06-17T14:53:12.144Z,101339.47
2018-06-17T14:55:39.033Z,101344.75
2018-06-17T14:58:05.928Z,101349.43
2018-06-17T15:00:32.817Z,101345.09
2018-06-17T15:02:59.733Z,101349.61
2018-06-17T15:05:26.641Z,101355.25
2018-06-17T15:07:53.582Z,101356.80
2018-06-17T15:10:20.479Z,101359.72
2018-06-17T15:12:47.428Z,101364.08
2018-06-17T15:15:14.592Z,101359.73
2018-06-17T15:17:41.453Z,101360.69
2018-06-17T15:20:08.434Z,101359.74
2018-06-17T15:22:35.285Z,101355.02
2018-06-17T15:25:02.647Z,101351.44
2018-06-17T15:27:29.553Z,101357.18
2018-06-17T15:29:56.460Z,101354.78
2018-06-17T15:33:31.839Z,101350.08
2018-06-17T15:36:04.501Z,101347.28
2018-06-17T15:38:37.152Z,101348.31
2018-06-17T15:41:09.765Z,101349.29
2018-06-17T15:43:36.678Z,101353.42
2018-06-17T15:46:03.584Z,101358.09
2018-06-17T15:48:30.486Z,101359.01
2018-06-17T15:50:57.443Z,101355.91
2018-06-17T15:53:24.349Z,101360.44
2018-06-17T15:55:51.268Z,101353.94
2018-06-17T15:58:18.209Z,101361.29
2018-06-17T16:00:45.128Z,101364.53
2018-06-17T16:03:12.020Z,101366.13
2018-06-17T16:05:38.941Z,101379.66
2018-06-17T16:08:05.838Z,101374.01
2018-06-17T16:10:32.755Z,101372.41
2018-06-17T16:13:05.371Z,101372.05
2018-06-17T16:15:38.021Z,101374.46
2018-06-17T16:18:10.656Z,101370.81
2018-06-17T16:20:43.338Z,101376.31
2018-06-17T16:23:10.243Z,101383.59
2018-06-17T16:25:37.189Z,101388.33
2018-06-17T16:28:04.099Z,101388.66
2018-06-17T16:30:31.110Z,101388.34
2018-06-17T16:32:58.014Z,101385.95
2018-06-17T16:35:24.924Z,101389.68
2018-06-17T16:37:51.837Z,101399.69
2018-06-17T16:40:18.756Z,101399.69
2018-06-17T16:42:45.942Z,101403.97
2018-06-17T16:45:13.090Z,101404.26
2018-06-17T16:47:40.006Z,101404.03
2018-06-17T16:50:06.904Z,101407.81
2018-06-17T16:52:42.901Z,101413.48
2018-06-17T16:55:17.212Z,101405.20
2018-06-17T16:57:49.842Z,101401.68
2018-06-17T17:00:18.888Z,101400.48
2018-06-17T17:02:46.265Z,101398.28
2018-06-17T17:05:13.420Z,101409.64
2018-06-17T17:07:40.703Z,101408.15
2018-06-17T17:10:07.643Z,101401.84
2018-06-17T17:12:34.570Z,101400.40
2018-06-17T17:15:01.493Z,101403.79
2018-06-17T17:17:28.446Z,101404.36
2018-06-17T17:19:55.348Z,101412.63
2018-06-17T17:22:22.253Z,101415.38
2018-06-17T17:24:49.436Z,101416.09
2018-06-17T17:27:16.349Z,101419.24
2018-06-17T17:29:43.248Z,101421.86
2018-06-17T17:32:15.884Z,101425.48
2018-06-17T17:34:48.561Z,101425.72
2018-06-17T17:37:21.346Z,101426.11
2018-06-17T17:39:54.106Z,101416.63
2018-06-17T17:42:21.025Z,101415.47
2018-06-17T17:44:53.822Z,101414.28
2018-06-17T17:47:22.674Z,101411.11
2018-06-17T17:49:49.713Z,101410.95
2018-06-17T17:52:16.626Z,101411.56
2018-06-17T17:54:43.751Z,101421.75
2018-06-17T17:57:10.673Z,101421.98
2018-06-17T17:59:37.808Z,101423.92
2018-06-17T18:02:05.092Z,101420.70
2018-06-17T18:04:32.053Z,101423.92
2018-06-17T18:06:59.118Z,101429.58
2018-06-17T18:09:26.080Z,101426.30
2018-06-17T18:11:52.996Z,101424.51
2018-06-17T18:14:19.900Z,101422.86
2018-06-17T18:16:46.851Z,101424.04
2018-06-17T18:19:13.768Z,101425.08
2018-06-17T18:21:40.681Z,101426.45
2018-06-17T18:24:07.598Z,101427.92
2018-06-17T18:26:40.314Z,101434.09
2018-06-17T18:29:12.965Z,101427.46
2018-06-17T18:31:45.650Z,101426.87
2018-06-17T18:34:18.325Z,101435.12
2018-06-17T18:36:45.233Z,101437.05
2018-06-17T18:39:12.208Z,101443.21
2018-06-17T18:41:39.228Z,101450.48
2018-06-17T18:44:06.128Z,101453.09
2018-06-17T18:46:33.126Z,101453.72
2018-06-17T18:49:00.175Z,101461.92
2018-06-17T18:51:27.371Z,101454.98
2018-06-17T18:53:54.273Z,101454.31
2018-06-17T18:56:21.216Z,101458.16
2018-06-17T18:58:48.233Z,101455.55
2018-06-17T19:01:15.124Z,101460.05
2018-06-17T19:03:42.228Z,101462.49
2018-06-17T19:06:10.034Z,101460.94
2018-06-17T19:08:42.612Z,101466.42
2018-06-17T19:11:15.240Z,101457.95
2018-06-17T19:13:47.951Z,101456.55
2018-06-17T19:16:20.720Z,101467.58
2018-06-17T19:18:47.634Z,101472.44
2018-06-17T19:21:14.523Z,101467.70
2018-06-17T19:23:41.423Z,101472.37
2018-06-17T19:26:08.328Z,101465.22
2018-06-17T19:28:35.246Z,101472.17
2018-06-17T19:31:02.140Z,101468.05
2018-06-17T19:33:29.081Z,101471.77
2018-06-17T19:35:55.994Z,101470.12
2018-06-17T19:38:22.925Z,101473.25
2018-06-17T19:40:49.913Z,101472.99
2018-06-17T19:43:16.791Z,101478.59
2018-06-17T19:45:43.706Z,101482.34
2018-06-17T19:48:10.796Z,101487.02
2018-06-17T19:50:43.459Z,101485.28
2018-06-17T19:53:16.179Z,101486.12
2018-06-17T19:55:48.857Z,101487.59
2018-06-17T19:58:25.737Z,101488.73
2018-06-17T20:00:55.735Z,101490.52
2018-06-17T20:03:22.653Z,101489.72
2018-06-17T20:05:49.586Z,101487.59
2018-06-17T20:08:16.488Z,101485.51
2018-06-17T20:10:43.405Z,101488.70
2018-06-17T20:13:10.301Z,101486.84
2018-06-17T20:15:37.193Z,101486.26
2018-06-17T20:18:04.181Z,101482.14
2018-06-17T20:20:31.109Z,101479.84
2018-06-17T20:22:58.017Z,101484.12
2018-06-17T20:25:24.924Z,101484.80
2018-06-17T20:27:52.613Z,101483.66
2018-06-17T20:30:19.606Z,101496.25
2018-06-17T20:32:52.176Z,101496.38
2018-06-17T20:35:24.785Z,101487.57
2018-06-17T20:37:57.542Z,101493.70
2018-06-17T20:40:30.240Z,101487.23
2018-06-17T20:43:02.934Z,101488.63
2018-06-17T20:45:29.846Z,101488.75
2018-06-17T20:47:56.765Z,101496.19
2018-06-17T20:50:23.648Z,101501.80
2018-06-17T20:52:50.577Z,101493.77
2018-06-17T20:55:17.938Z,101493.89
2018-06-17T20:57:45.534Z,101501.53
2018-06-17T21:00:12.425Z,101508.15
2018-06-17T21:02:39.344Z,101512.16
2018-06-17T21:05:06.252Z,101513.84
2018-06-17T21:07:33.128Z,101505.45
2018-06-17T21:10:00.027Z,101504.59
2018-06-17T21:12:26.921Z,101505.17
2018-06-17T21:14:53.819Z,101492.73
2018-06-17T21:17:20.767Z,101502.62
2018-06-17T21:19:53.292Z,101496.20
2018-06-17T21:22:25.976Z,101492.20
2018-06-17T21:24:58.626Z,101495.21
2018-06-17T21:27:31.272Z,101505.38
2018-06-17T21:29:58.181Z,101510.34
2018-06-17T21:32:25.378Z,101506.38
2018-06-17T21:34:52.272Z,101507.77
2018-06-17T21:37:19.206Z,101512.06
2018-06-17T21:39:46.412Z,101513.80
2018-06-17T21:42:13.332Z,101514.23
2018-06-17T21:44:40.252Z,101513.89
2018-06-17T21:47:07.156Z,101517.99
2018-06-17T21:49:34.038Z,101516.39
2018-06-17T21:52:01.921Z,101520.23
2018-06-17T21:54:28.829Z,101523.45
2018-06-17T21:56:55.801Z,101522.95
2018-06-17T21:59:22.681Z,101522.84
2018-06-17T22:01:49.605Z,101528.95
2018-06-17T22:04:22.244Z,101534.09
2018-06-17T22:06:49.238Z,101536.31
2018-06-17T22:10:22.593Z,101523.61
2018-06-17T22:12:55.309Z,101528.89
2018-06-17T22:15:27.961Z,101527.56
2018-06-17T22:17:55.123Z,101532.59
2018-06-17T22:20:22.072Z,101522.33
2018-06-17T22:22:48.990Z,101524.89
2018-06-17T22:25:16.145Z,101518.54
2018-06-17T22:27:43.063Z,101519.21
2018-06-17T22:30:09.964Z,101520.83
2018-06-17T22:32:36.917Z,101532.67
2018-06-17T22:35:03.912Z,101527.34
2018-06-17T22:37:30.808Z,101532.61
2018-06-17T22:39:57.696Z,101536.05
2018-06-17T22:42:24.601Z,101529.55
2018-06-17T22:44:51.491Z,101535.94
2018-06-17T22:47:24.252Z,101541.22
2018-06-17T22:49:51.120Z,101539.00
2018-06-17T22:52:17.999Z,101544.17
2018-06-17T22:54:49.243Z,101545.56
2018-06-17T22:57:21.977Z,101544.66
2018-06-17T22:59:54.557Z,101556.13
2018-06-17T23:02:27.232Z,101550.16
2018-06-17T23:04:59.917Z,101552.23
2018-06-17T23:07:32.592Z,101545.67
2018-06-17T23:09:59.516Z,101554.44
2018-06-17T23:12:26.433Z,101558.95
2018-06-17T23:14:53.314Z,101549.77
2018-06-17T23:17:20.202Z,101551.03
2018-06-17T23:19:47.076Z,101551.03
2018-06-17T23:22:14.021Z,101548.37
2018-06-17T23:24:40.921Z,101548.47
2018-06-17T23:27:07.838Z,101552.88
2018-06-17T23:29:34.798Z,101551.99
2018-06-17T23:32:01.694Z,101541.61
2018-06-17T23:34:28.605Z,101559.83
2018-06-17T23:36:55.492Z,101565.21
2018-06-17T23:39:22.413Z,101560.78
2018-06-17T23:41:49.312Z,101560.88
2018-06-17T23:44:16.221Z,101564.19
2018-06-17T23:46:48.825Z,101567.47
2018-06-17T23:49:21.504Z,101565.94
2018-06-17T23:51:54.204Z,101565.36
2018-06-17T23:54:26.904Z,101562.64
2018-06-17T23:56:53.846Z,101558.95
2018-06-17T23:59:20.763Z,101558.75
